Savoy, Texas
Current Conditions -  °F | °C
As of 1:35 AM on Sunday 23 Nov 2014 (Local Time) from KGYI Reporting Station
Broken Clouds Broken Clouds  
Wind Chill: 58°   Ceiling: 500
Heat Index: 58°   Visibility: 10mi
Dew Point: 58°   Wind: 12mph
Humidity: 100%   Direction: 140°SE
Pressure: 29.64"   Gusts: NA
Location:  33.6°N, 96.37°W
Report Text: KGYI 230735Z AUTO 14010KT 10SM BKN005 15/15 A2964 RMK AO2 T01450145
Loading
Personal Weather Stations






























Interactive Weather Map New forecast layout! Learn more

10-Day Weather Forecast

Advertisements
Track Severe Weather on mobile